createdAt,value
2023-04-28T00:01:12.145Z,9.90
2023-04-28T00:03:39.159Z,10.40
2023-04-28T00:06:06.017Z,10.93
2023-04-28T00:08:32.870Z,11.43
2023-04-28T00:10:59.785Z,10.77
2023-04-28T00:13:26.656Z,12.40
2023-04-28T00:15:53.661Z,11.10
2023-04-28T00:18:20.843Z,10.90
2023-04-28T00:20:47.575Z,11.93
2023-04-28T00:23:14.174Z,14.00
2023-04-28T00:25:40.796Z,12.40
2023-04-28T00:28:07.400Z,12.87
2023-04-28T00:30:34.032Z,12.23
2023-04-28T00:33:00.659Z,14.13
2023-04-28T00:35:27.298Z,12.43
2023-04-28T00:37:53.785Z,13.77
2023-04-28T00:40:21.067Z,12.77
2023-04-28T00:42:47.686Z,13.00
2023-04-28T00:45:14.306Z,12.40
2023-04-28T00:47:42.172Z,11.90
2023-04-28T00:50:10.513Z,11.83
2023-04-28T00:52:38.552Z,11.27
2023-04-28T00:55:05.489Z,12.40
2023-04-28T00:57:32.286Z,12.37
2023-04-28T00:59:59.949Z,13.00
2023-04-28T01:02:26.998Z,13.10
2023-04-28T01:04:54.331Z,13.77
2023-04-28T01:07:22.385Z,13.67
2023-04-28T01:09:49.562Z,11.67
2023-04-28T01:12:20.624Z,12.63
2023-04-28T01:14:50.488Z,13.83
2023-04-28T01:17:17.404Z,12.33
2023-04-28T01:19:44.029Z,13.97
2023-04-28T01:22:14.009Z,14.07
2023-04-28T01:24:40.752Z,15.90
2023-04-28T01:27:08.865Z,13.23
2023-04-28T01:29:37.181Z,15.53
2023-04-28T01:32:04.673Z,15.10
2023-04-28T01:34:33.123Z,15.30
2023-04-28T01:36:59.696Z,14.60
2023-04-28T01:39:26.251Z,14.53
2023-04-28T01:41:52.847Z,14.37
2023-04-28T01:44:19.720Z,14.20
2023-04-28T01:46:48.402Z,13.37
2023-04-28T01:49:15.009Z,14.40
2023-04-28T01:51:42.864Z,14.37
2023-04-28T01:54:10.027Z,16.60
2023-04-28T01:56:36.868Z,14.80
2023-04-28T01:59:03.961Z,15.97
2023-04-28T02:01:31.260Z,15.17
2023-04-28T02:03:58.123Z,15.43
2023-04-28T02:06:24.792Z,11.67
2023-04-28T02:08:51.634Z,13.57
2023-04-28T02:11:18.166Z,13.07
2023-04-28T02:13:44.721Z,13.30
2023-04-28T02:16:11.549Z,11.33
2023-04-28T02:18:38.166Z,14.67
2023-04-28T02:21:11.811Z,12.53
2023-04-28T02:23:39.015Z,14.53
2023-04-28T02:26:05.836Z,14.77
2023-04-28T02:28:32.578Z,16.63
2023-04-28T02:31:09.496Z,15.80
2023-04-28T02:33:36.895Z,14.30
2023-04-28T02:36:04.372Z,11.97
2023-04-28T02:38:31.266Z,15.70
2023-04-28T02:40:59.017Z,13.27
2023-04-28T02:43:25.748Z,11.87
2023-04-28T02:45:52.648Z,13.20
2023-04-28T02:48:19.331Z,13.57
2023-04-28T02:50:48.895Z,11.93
2023-04-28T02:53:15.807Z,13.40
2023-04-28T02:55:42.530Z,14.00
2023-04-28T02:58:09.248Z,12.57
2023-04-28T03:00:36.302Z,14.00
2023-04-28T03:03:03.256Z,13.80
2023-04-28T03:05:30.215Z,13.23
2023-04-28T03:07:56.966Z,13.63
2023-04-28T03:10:23.769Z,14.10
2023-04-28T03:12:50.459Z,13.93
2023-04-28T03:15:18.212Z,14.20
2023-04-28T03:17:45.843Z,13.20
2023-04-28T03:20:13.091Z,13.87
2023-04-28T03:22:39.818Z,14.20
2023-04-28T03:25:06.512Z,13.90
2023-04-28T03:27:37.737Z,11.17
2023-04-28T03:30:06.446Z,9.33
2023-04-28T03:32:33.151Z,10.13
2023-04-28T03:34:59.784Z,7.83
2023-04-28T03:37:27.169Z,10.50
2023-04-28T03:39:53.993Z,11.40
2023-04-28T03:42:20.573Z,8.00
2023-04-28T03:45:05.027Z,12.63
2023-04-28T03:47:32.405Z,10.17
2023-04-28T03:49:59.081Z,9.30
2023-04-28T03:52:26.050Z,10.53
2023-04-28T03:54:52.689Z,12.33
2023-04-28T03:57:20.458Z,11.83
2023-04-28T03:59:47.048Z,12.60
2023-04-28T04:02:13.750Z,13.17
2023-04-28T04:04:40.623Z,15.60
2023-04-28T04:07:08.453Z,12.60
2023-04-28T04:09:35.024Z,16.30
2023-04-28T04:12:01.687Z,16.10
2023-04-28T04:14:28.200Z,10.37
2023-04-28T04:16:55.589Z,13.97
2023-04-28T04:19:24.064Z,15.23
2023-04-28T04:21:53.598Z,13.87
2023-04-28T04:24:20.157Z,12.00
2023-04-28T04:26:46.800Z,12.57
2023-04-28T04:29:26.029Z,11.03
2023-04-28T04:31:52.614Z,11.87
2023-04-28T04:34:19.144Z,7.53
2023-04-28T04:36:46.155Z,8.80
2023-04-28T04:39:12.723Z,7.83
2023-04-28T04:41:39.423Z,10.67
2023-04-28T04:44:32.349Z,9.57
2023-04-28T04:47:00.091Z,12.57
2023-04-28T04:49:26.823Z,12.90
2023-04-28T04:51:53.566Z,12.63
2023-04-28T04:54:20.269Z,13.23
2023-04-28T04:56:47.208Z,13.70
2023-04-28T04:59:19.142Z,12.77
2023-04-28T05:01:54.667Z,12.47
2023-04-28T05:04:22.508Z,14.00
2023-04-28T05:06:49.557Z,15.37
2023-04-28T05:09:17.193Z,13.50
2023-04-28T05:11:44.308Z,11.27
2023-04-28T05:14:10.863Z,14.83
2023-04-28T05:16:39.418Z,13.20
2023-04-28T05:19:16.163Z,16.43
2023-04-28T05:21:42.881Z,14.80
2023-04-28T05:24:09.545Z,14.20
2023-04-28T05:26:36.702Z,15.57
2023-04-28T05:29:07.675Z,14.47
2023-04-28T05:31:34.401Z,13.77
2023-04-28T05:34:00.965Z,16.30
2023-04-28T05:36:27.807Z,14.60
2023-04-28T05:38:54.478Z,14.60
2023-04-28T05:41:21.321Z,13.17
2023-04-28T05:43:50.966Z,14.43
2023-04-28T05:46:29.178Z,10.37
2023-04-28T05:48:58.596Z,13.60
2023-04-28T05:51:25.428Z,14.63
2023-04-28T05:53:51.975Z,15.60
2023-04-28T05:56:19.738Z,14.70
2023-04-28T05:58:50.883Z,14.77
2023-04-28T06:01:17.603Z,12.93
2023-04-28T06:03:45.117Z,14.07
2023-04-28T06:06:12.078Z,14.40
2023-04-28T06:08:38.945Z,13.50
2023-04-28T06:11:05.655Z,12.97
2023-04-28T06:13:32.721Z,11.70
2023-04-28T06:15:59.388Z,13.00
2023-04-28T06:18:27.381Z,14.00
2023-04-28T06:20:54.074Z,12.23
2023-04-28T06:23:20.718Z,13.60
2023-04-28T06:25:48.813Z,13.27
2023-04-28T06:28:15.441Z,13.27
2023-04-28T06:30:42.071Z,13.47
2023-04-28T06:33:09.053Z,14.87
2023-04-28T06:35:39.597Z,11.80
2023-04-28T06:38:06.498Z,12.30
2023-04-28T06:40:33.271Z,10.50
2023-04-28T06:43:01.479Z,12.67
2023-04-28T06:45:35.812Z,11.83
2023-04-28T06:48:02.749Z,11.80
2023-04-28T06:50:29.319Z,13.13
2023-04-28T06:52:56.061Z,12.07
2023-04-28T06:55:23.666Z,13.47
2023-04-28T06:57:50.242Z,11.67
2023-04-28T07:00:17.138Z,12.60
2023-04-28T07:02:43.755Z,12.80
2023-04-28T07:05:10.496Z,14.60
2023-04-28T07:07:38.956Z,11.97
2023-04-28T07:10:06.562Z,13.60
2023-04-28T07:12:33.277Z,12.67
2023-04-28T07:14:59.811Z,12.57
2023-04-28T07:17:26.406Z,14.13
2023-04-28T07:19:53.260Z,12.83
2023-04-28T07:22:19.888Z,12.33
2023-04-28T07:24:46.394Z,12.77
2023-04-28T07:27:13.068Z,11.70
2023-04-28T07:29:39.599Z,12.40
2023-04-28T07:32:08.305Z,9.70
2023-04-28T07:34:35.692Z,12.83
2023-04-28T07:37:03.038Z,11.80
2023-04-28T07:39:31.186Z,10.07
2023-04-28T07:41:58.945Z,10.03
2023-04-28T07:44:25.589Z,11.50
2023-04-28T07:46:53.045Z,11.57
2023-04-28T07:49:19.559Z,12.10
2023-04-28T07:51:46.135Z,9.47
2023-04-28T07:54:12.714Z,10.40
2023-04-28T07:56:39.370Z,10.00
2023-04-28T07:59:05.953Z,10.23
2023-04-28T08:01:32.520Z,11.40
2023-04-28T08:06:25.635Z,10.73
2023-04-28T08:08:52.310Z,9.30
2023-04-28T08:11:18.940Z,11.60
2023-04-28T08:13:45.516Z,11.17
2023-04-28T08:16:12.111Z,11.50
2023-04-28T08:18:39.788Z,12.90
2023-04-28T08:21:06.586Z,14.73
2023-04-28T08:23:33.341Z,13.50
2023-04-28T08:25:59.936Z,11.70
2023-04-28T08:28:27.285Z,13.90
2023-04-28T08:30:55.550Z,17.70
2023-04-28T08:33:23.855Z,15.00
2023-04-28T08:35:51.208Z,14.63
2023-04-28T08:38:18.368Z,17.97
2023-04-28T08:40:45.575Z,14.50
2023-04-28T08:43:13.698Z,15.87
2023-04-28T08:45:45.339Z,14.90
2023-04-28T08:48:20.340Z,13.30
2023-04-28T08:50:51.945Z,13.50
2023-04-28T08:53:22.302Z,15.30
2023-04-28T08:55:50.469Z,14.93
2023-04-28T08:58:17.815Z,14.63
2023-04-28T09:00:44.413Z,14.90
2023-04-28T09:03:11.214Z,17.57
2023-04-28T09:05:37.964Z,17.30
2023-04-28T09:08:04.791Z,15.27
2023-04-28T09:10:31.460Z,16.40
2023-04-28T09:12:58.571Z,16.17
2023-04-28T09:15:31.229Z,15.30
2023-04-28T09:17:59.586Z,13.30
2023-04-28T09:20:27.606Z,17.00
2023-04-28T09:22:54.724Z,14.03
2023-04-28T09:25:22.844Z,17.97
2023-04-28T09:27:52.034Z,17.33
2023-04-28T09:30:18.855Z,15.77
2023-04-28T09:32:45.524Z,12.93
2023-04-28T09:35:12.174Z,11.20
2023-04-28T09:37:38.767Z,12.03
2023-04-28T09:40:06.743Z,10.03
2023-04-28T09:42:36.462Z,7.20
2023-04-28T09:45:10.400Z,6.93
2023-04-28T09:47:38.582Z,8.27
2023-04-28T09:50:11.670Z,6.43
2023-04-28T09:52:38.390Z,7.40
2023-04-28T09:55:06.198Z,5.40
2023-04-28T09:57:34.032Z,6.20
2023-04-28T10:00:01.536Z,5.90
2023-04-28T10:04:59.188Z,6.07
2023-04-28T10:07:26.541Z,5.50
2023-04-28T10:09:53.739Z,5.93
2023-04-28T10:12:21.195Z,5.57
2023-04-28T10:14:54.382Z,5.87
2023-04-28T10:17:21.843Z,7.23
2023-04-28T10:19:52.009Z,5.83
2023-04-28T10:22:35.233Z,5.80
2023-04-28T10:25:11.926Z,6.50
2023-04-28T10:27:39.494Z,5.73
2023-04-28T10:30:22.837Z,5.20
2023-04-28T10:33:11.971Z,5.93
2023-04-28T10:35:40.373Z,5.57
2023-04-28T10:38:10.402Z,5.33
2023-04-28T10:40:38.670Z,4.70
2023-04-28T10:43:06.107Z,5.50
2023-04-28T10:45:53.800Z,5.20
2023-04-28T10:48:23.588Z,5.00
2023-04-28T10:51:09.802Z,5.53
2023-04-28T10:53:42.745Z,4.37
2023-04-28T10:56:10.251Z,4.10
2023-04-28T10:58:41.801Z,4.30
2023-04-28T11:01:27.597Z,4.63
2023-04-28T11:04:00.545Z,4.73
2023-04-28T11:06:35.654Z,4.00
2023-04-28T11:09:12.219Z,4.43
2023-04-28T11:11:39.769Z,4.30
2023-04-28T11:14:18.894Z,3.80
2023-04-28T11:17:04.284Z,4.03
2023-04-28T11:19:32.159Z,3.50
2023-04-28T11:22:02.096Z,3.90
2023-04-28T11:24:29.360Z,4.40
2023-04-28T11:26:56.603Z,3.43
2023-04-28T11:29:33.706Z,4.30
2023-04-28T11:32:00.764Z,3.97
2023-04-28T11:34:27.575Z,3.43
2023-04-28T11:36:54.882Z,3.60
2023-04-28T11:39:29.218Z,4.20
2023-04-28T11:41:56.632Z,13.67
2023-04-28T11:44:24.411Z,4.03
2023-04-28T11:46:55.695Z,3.20
2023-04-28T11:49:28.193Z,3.50
2023-04-28T11:51:55.039Z,3.50
2023-04-28T11:54:22.599Z,3.10
2023-04-28T11:56:49.363Z,3.23
2023-04-28T11:59:16.122Z,2.60
2023-04-28T12:01:51.474Z,2.27
2023-04-28T12:04:27.366Z,2.90
2023-04-28T12:07:10.803Z,3.60
2023-04-28T12:09:38.337Z,3.83
2023-04-28T12:12:05.817Z,3.60
2023-04-28T12:14:35.379Z,3.20
2023-04-28T12:17:02.251Z,3.50
2023-04-28T12:19:28.812Z,3.50
2023-04-28T12:21:59.290Z,4.20
2023-04-28T12:24:26.858Z,4.87
2023-04-28T12:26:54.237Z,3.73
2023-04-28T12:29:39.930Z,4.87
2023-04-28T12:32:07.583Z,3.33
2023-04-28T12:34:34.600Z,2.47
2023-04-28T12:37:01.609Z,3.23
2023-04-28T12:39:28.350Z,2.53
2023-04-28T12:41:55.198Z,1.80
2023-04-28T12:44:22.986Z,1.17
2023-04-28T12:46:49.772Z,1.37
2023-04-28T12:49:16.286Z,1.50
2023-04-28T12:51:42.930Z,1.03
2023-04-28T12:54:09.609Z,0.90
2023-04-28T12:56:36.283Z,0.90
2023-04-28T12:59:06.003Z,0.60
2023-04-28T13:01:32.716Z,0.60
2023-04-28T13:03:59.490Z,0.77
2023-04-28T13:06:26.854Z,0.90
2023-04-28T13:08:53.416Z,0.80
2023-04-28T13:11:22.842Z,0.90
2023-04-28T13:13:49.904Z,0.80
2023-04-28T13:16:16.840Z,0.70
2023-04-28T13:18:43.438Z,1.17
2023-04-28T13:21:10.114Z,1.47
2023-04-28T13:23:36.662Z,1.30
2023-04-28T13:26:04.337Z,1.40
2023-04-28T13:28:31.287Z,1.80
2023-04-28T13:30:57.817Z,1.10
2023-04-28T13:33:30.934Z,0.80
2023-04-28T13:35:58.434Z,1.00
2023-04-28T13:38:25.817Z,0.90
2023-04-28T13:40:53.156Z,1.20
2023-04-28T13:43:19.711Z,1.37
2023-04-28T13:45:46.489Z,1.23
2023-04-28T13:48:13.078Z,0.90
2023-04-28T13:50:39.747Z,1.00
2023-04-28T13:53:06.264Z,1.23
2023-04-28T13:55:32.785Z,0.90
2023-04-28T13:58:02.677Z,0.90
2023-04-28T14:00:29.875Z,0.97
2023-04-28T14:02:56.978Z,2.03
2023-04-28T14:05:23.612Z,1.00
2023-04-28T14:07:50.136Z,1.53
2023-04-28T14:10:16.768Z,1.17
2023-04-28T14:12:43.741Z,1.67
2023-04-28T14:15:11.319Z,1.10
2023-04-28T14:17:39.076Z,1.47
2023-04-28T14:20:06.690Z,1.47
2023-04-28T14:22:33.263Z,1.67
2023-04-28T14:24:59.857Z,1.70
2023-04-28T14:27:27.636Z,2.07
2023-04-28T14:29:54.213Z,2.30
2023-04-28T14:32:21.471Z,2.00
2023-04-28T14:34:49.864Z,2.40
2023-04-28T14:37:17.650Z,2.47
2023-04-28T14:39:44.523Z,2.50
2023-04-28T14:42:11.944Z,2.40
2023-04-28T14:44:38.791Z,2.67
2023-04-28T14:47:05.573Z,2.10
2023-04-28T14:49:32.151Z,3.00
2023-04-28T14:52:00.876Z,2.40
2023-04-28T14:54:27.682Z,2.40
2023-04-28T14:56:54.357Z,3.00
2023-04-28T14:59:21.093Z,2.47
2023-04-28T15:01:48.337Z,3.47
2023-04-28T15:04:15.261Z,2.37
2023-04-28T15:06:41.960Z,2.70
2023-04-28T15:09:11.896Z,2.20
2023-04-28T15:11:38.577Z,2.67
2023-04-28T15:14:06.542Z,2.20
2023-04-28T15:16:33.237Z,2.87
2023-04-28T15:19:00.319Z,2.20
2023-04-28T15:21:28.560Z,2.50
2023-04-28T15:23:55.476Z,3.10
2023-04-28T15:26:23.670Z,2.67
2023-04-28T15:28:50.388Z,2.23
2023-04-28T15:31:17.242Z,3.00
2023-04-28T15:33:43.845Z,2.60
2023-04-28T15:36:11.124Z,3.30
2023-04-28T15:38:38.462Z,3.27
2023-04-28T15:41:05.407Z,2.83
2023-04-28T15:43:32.126Z,2.53
2023-04-28T15:45:59.208Z,1.80
2023-04-28T15:48:26.123Z,2.20
2023-04-28T15:50:52.838Z,2.93
2023-04-28T15:53:19.543Z,2.07
2023-04-28T15:55:46.236Z,1.90
2023-04-28T15:58:12.937Z,1.97
2023-04-28T16:00:41.542Z,1.83
2023-04-28T16:03:08.263Z,1.43
2023-04-28T16:05:35.057Z,1.47
2023-04-28T16:08:01.705Z,1.37
2023-04-28T16:10:28.662Z,1.63
2023-04-28T16:12:55.292Z,1.70
2023-04-28T16:15:22.045Z,1.40
2023-04-28T16:17:49.260Z,2.30
2023-04-28T16:20:15.930Z,1.80
2023-04-28T16:22:43.117Z,2.60
2023-04-28T16:25:10.696Z,2.60
2023-04-28T16:27:38.307Z,2.00
2023-04-28T16:30:07.609Z,2.70
2023-04-28T16:32:36.671Z,2.60
2023-04-28T16:35:03.581Z,2.43
2023-04-28T16:37:30.488Z,2.27
2023-04-28T16:39:57.383Z,1.50
2023-04-28T16:42:24.092Z,1.50
2023-04-28T16:44:52.684Z,1.33
2023-04-28T16:47:19.938Z,2.77
2023-04-28T16:49:46.914Z,2.23
2023-04-28T16:52:13.553Z,2.27
2023-04-28T16:54:40.339Z,2.33
2023-04-28T16:57:07.902Z,3.17
2023-04-28T16:59:34.563Z,1.87
2023-04-28T17:02:04.896Z,2.13
2023-04-28T17:04:32.056Z,3.20
2023-04-28T17:06:59.700Z,2.30
2023-04-28T17:09:27.594Z,1.83
2023-04-28T17:11:54.317Z,1.63
2023-04-28T17:14:21.300Z,2.13
2023-04-28T17:16:47.966Z,1.60
2023-04-28T17:19:14.530Z,1.93
2023-04-28T17:21:41.514Z,1.97
2023-04-28T17:24:08.962Z,2.43
2023-04-28T17:26:36.462Z,2.40
2023-04-28T17:29:03.657Z,2.47
2023-04-28T17:31:30.536Z,2.10
2023-04-28T17:33:57.936Z,2.50
2023-04-28T17:36:27.121Z,2.50
2023-04-28T17:38:54.046Z,3.10
2023-04-28T17:41:21.322Z,2.57
2023-04-28T17:43:48.593Z,2.77
2023-04-28T17:46:16.158Z,3.30
2023-04-28T17:48:43.434Z,3.60
2023-04-28T17:51:10.043Z,2.80
2023-04-28T17:53:37.371Z,3.50
2023-04-28T17:56:04.118Z,2.70
2023-04-28T17:58:32.837Z,3.70
2023-04-28T18:01:08.822Z,3.17
2023-04-28T18:03:35.935Z,3.20
2023-04-28T18:06:04.982Z,5.57
2023-04-28T18:08:32.129Z,4.17
2023-04-28T18:10:58.903Z,5.37
2023-04-28T18:13:25.439Z,4.10
2023-04-28T18:15:52.699Z,3.80
2023-04-28T18:18:19.636Z,4.23
2023-04-28T18:20:47.026Z,4.00
2023-04-28T18:23:13.522Z,3.03
2023-04-28T18:25:40.573Z,4.50
2023-04-28T18:28:08.188Z,3.00
2023-04-28T18:30:37.804Z,3.40
2023-04-28T18:33:05.547Z,3.57
2023-04-28T18:35:32.347Z,2.73
2023-04-28T18:38:00.978Z,3.67
2023-04-28T18:40:38.584Z,3.00
2023-04-28T18:43:06.900Z,2.23
2023-04-28T18:45:35.223Z,2.47
2023-04-28T18:48:02.666Z,2.37
2023-04-28T18:50:29.512Z,2.40
2023-04-28T18:52:56.463Z,2.67
2023-04-28T18:55:23.106Z,4.03
2023-04-28T18:57:49.857Z,3.90
2023-04-28T19:00:17.057Z,3.00
2023-04-28T19:02:44.584Z,2.77
2023-04-28T19:05:14.451Z,2.03
2023-04-28T19:07:42.039Z,2.67
2023-04-28T19:10:08.919Z,2.77
2023-04-28T19:12:35.574Z,2.93
2023-04-28T19:15:02.167Z,2.63
2023-04-28T19:17:29.549Z,2.83
2023-04-28T19:19:56.803Z,3.27
2023-04-28T19:22:31.410Z,2.73
2023-04-28T19:24:59.618Z,3.23
2023-04-28T19:27:28.837Z,3.03
2023-04-28T19:29:55.679Z,3.07
2023-04-28T19:32:22.409Z,3.13
2023-04-28T19:34:50.400Z,3.70
2023-04-28T19:37:17.266Z,3.23
2023-04-28T19:39:44.408Z,3.40
2023-04-28T19:42:11.142Z,2.80
2023-04-28T19:44:37.795Z,3.00
2023-04-28T19:47:04.632Z,2.83
2023-04-28T19:49:31.247Z,3.20
2023-04-28T19:51:58.779Z,3.13
2023-04-28T19:54:25.593Z,3.00
2023-04-28T19:56:53.773Z,3.50
2023-04-28T19:59:20.928Z,2.93
2023-04-28T20:01:47.587Z,3.60
2023-04-28T20:04:14.677Z,2.90
2023-04-28T20:06:43.050Z,3.20
2023-04-28T20:09:10.230Z,3.10
2023-04-28T20:11:37.561Z,3.47
2023-04-28T20:14:04.181Z,3.40
2023-04-28T20:16:31.368Z,2.83
2023-04-28T20:18:58.086Z,4.00
2023-04-28T20:21:26.258Z,3.20
2023-04-28T20:23:52.977Z,3.40
2023-04-28T20:26:20.572Z,3.10
2023-04-28T20:28:47.920Z,2.80
2023-04-28T20:31:15.187Z,3.27
2023-04-28T20:33:41.853Z,3.43
2023-04-28T20:36:08.596Z,3.53
2023-04-28T20:38:35.182Z,2.50
2023-04-28T20:41:02.327Z,2.93
2023-04-28T20:43:29.251Z,2.50
2023-04-28T20:45:55.847Z,2.93
2023-04-28T20:48:22.424Z,4.10
2023-04-28T20:50:53.067Z,3.37
2023-04-28T20:53:19.589Z,3.10
2023-04-28T20:55:46.174Z,3.80
2023-04-28T20:58:13.697Z,3.70
2023-04-28T21:00:42.206Z,3.93
2023-04-28T21:03:15.085Z,4.97
2023-04-28T21:05:43.130Z,5.10
2023-04-28T21:08:09.788Z,4.50
2023-04-28T21:10:36.658Z,5.97
2023-04-28T21:13:03.539Z,5.00
2023-04-28T21:15:30.717Z,5.60
2023-04-28T21:17:57.331Z,5.27
2023-04-28T21:20:24.304Z,5.00
2023-04-28T21:22:51.019Z,6.57
2023-04-28T21:25:17.591Z,5.90
2023-04-28T21:27:44.539Z,6.03
2023-04-28T21:30:12.985Z,5.73
2023-04-28T21:32:39.900Z,5.27
2023-04-28T21:35:06.758Z,8.00
2023-04-28T21:37:33.424Z,6.00
2023-04-28T21:40:00.170Z,6.47
2023-04-28T21:42:31.441Z,6.87
2023-04-28T21:44:58.626Z,5.87
2023-04-28T21:47:25.385Z,7.03
2023-04-28T21:49:52.291Z,7.70
2023-04-28T21:52:19.068Z,8.23
2023-04-28T21:54:45.643Z,8.07
2023-04-28T21:57:12.213Z,10.10
2023-04-28T21:59:38.971Z,9.80
2023-04-28T22:02:07.474Z,9.40
2023-04-28T22:04:44.743Z,11.33
2023-04-28T22:07:11.677Z,10.87
2023-04-28T22:09:38.448Z,10.70
2023-04-28T22:12:05.127Z,9.77
2023-04-28T22:14:56.617Z,9.07
2023-04-28T22:17:24.762Z,11.40
2023-04-28T22:19:57.233Z,11.90
2023-04-28T22:22:24.469Z,12.97
2023-04-28T22:24:52.326Z,13.17
2023-04-28T22:27:20.028Z,13.27
2023-04-28T22:29:47.695Z,13.70
2023-04-28T22:32:14.442Z,14.70
2023-04-28T22:34:41.150Z,14.77
2023-04-28T22:37:09.299Z,14.03
2023-04-28T22:39:36.524Z,15.80
2023-04-28T22:42:05.725Z,15.00
2023-04-28T22:44:34.075Z,15.87
2023-04-28T22:47:01.181Z,16.57
2023-04-28T22:49:30.624Z,17.70
2023-04-28T22:52:05.817Z,17.37
2023-04-28T22:54:34.563Z,18.77
2023-04-28T22:57:05.524Z,17.93
2023-04-28T22:59:35.058Z,18.37
2023-04-28T23:02:03.194Z,19.50
2023-04-28T23:04:30.247Z,18.53
2023-04-28T23:07:00.374Z,20.70
2023-04-28T23:09:29.866Z,20.60
2023-04-28T23:11:58.633Z,20.03
2023-04-28T23:14:28.013Z,20.80
2023-04-28T23:16:57.235Z,19.27
2023-04-28T23:19:23.850Z,23.03
2023-04-28T23:21:50.694Z,23.70
2023-04-28T23:24:17.495Z,22.50
2023-04-28T23:26:44.232Z,22.77
2023-04-28T23:29:11.095Z,24.27
2023-04-28T23:31:42.728Z,21.63
2023-04-28T23:34:09.573Z,22.20
2023-04-28T23:36:37.821Z,22.57
2023-04-28T23:39:04.526Z,20.93
2023-04-28T23:41:31.266Z,23.03
2023-04-28T23:43:57.991Z,21.27
2023-04-28T23:46:24.730Z,20.90
2023-04-28T23:48:51.478Z,20.87
2023-04-28T23:51:18.299Z,21.83
2023-04-28T23:53:45.085Z,21.17
2023-04-28T23:56:11.712Z,20.60
2023-04-28T23:58:38.906Z,24.47
